sensor_id;sensor_type;location;lat;lon;timestamp;P1;durP1;ratioP1;P2;durP2;ratioP2
53881;SDS011;39794;55.782;37.452;2024-02-28T00:00:15;5.65;;;3.13;;
53881;SDS011;39794;55.782;37.452;2024-02-28T00:02:43;7.93;;;3.90;;
53881;SDS011;39794;55.782;37.452;2024-02-28T00:05:12;7.43;;;3.97;;
53881;SDS011;39794;55.782;37.452;2024-02-28T00:07:40;8.30;;;3.63;;
53881;SDS011;39794;55.782;37.452;2024-02-28T00:10:09;11.93;;;3.90;;
53881;SDS011;39794;55.782;37.452;2024-02-28T00:12:38;9.18;;;4.05;;
53881;SDS011;39794;55.782;37.452;2024-02-28T00:15:08;8.27;;;3.67;;
53881;SDS011;39794;55.782;37.452;2024-02-28T00:17:38;9.23;;;3.97;;
53881;SDS011;39794;55.782;37.452;2024-02-28T00:20:08;8.02;;;3.90;;
53881;SDS011;39794;55.782;37.452;2024-02-28T00:22:38;12.30;;;4.65;;
53881;SDS011;39794;55.782;37.452;2024-02-28T00:25:07;9.02;;;4.10;;
53881;SDS011;39794;55.782;37.452;2024-02-28T00:27:38;6.53;;;3.53;;
53881;SDS011;39794;55.782;37.452;2024-02-28T00:30:08;7.40;;;4.20;;
53881;SDS011;39794;55.782;37.452;2024-02-28T00:32:37;8.95;;;4.22;;
53881;SDS011;39794;55.782;37.452;2024-02-28T00:35:06;7.47;;;3.80;;
53881;SDS011;39794;55.782;37.452;2024-02-28T00:37:34;8.60;;;4.13;;
53881;SDS011;39794;55.782;37.452;2024-02-28T00:40:04;8.35;;;3.67;;
53881;SDS011;39794;55.782;37.452;2024-02-28T00:42:33;7.78;;;3.60;;
53881;SDS011;39794;55.782;37.452;2024-02-28T00:45:02;8.65;;;3.50;;
53881;SDS011;39794;55.782;37.452;2024-02-28T00:47:32;9.65;;;3.80;;
53881;SDS011;39794;55.782;37.452;2024-02-28T00:50:00;5.63;;;3.35;;
53881;SDS011;39794;55.782;37.452;2024-02-28T00:52:29;8.15;;;3.63;;
53881;SDS011;39794;55.782;37.452;2024-02-28T00:54:59;8.63;;;4.13;;
53881;SDS011;39794;55.782;37.452;2024-02-28T00:57:28;7.32;;;3.92;;
53881;SDS011;39794;55.782;37.452;2024-02-28T00:59:57;7.38;;;3.60;;
53881;SDS011;39794;55.782;37.452;2024-02-28T01:02:25;7.07;;;3.75;;
53881;SDS011;39794;55.782;37.452;2024-02-28T01:04:55;8.00;;;4.10;;
53881;SDS011;39794;55.782;37.452;2024-02-28T01:07:23;9.43;;;4.30;;
53881;SDS011;39794;55.782;37.452;2024-02-28T01:09:52;10.20;;;4.35;;
53881;SDS011;39794;55.782;37.452;2024-02-28T01:12:21;10.73;;;3.97;;
53881;SDS011;39794;55.782;37.452;2024-02-28T01:14:50;9.07;;;3.80;;
53881;SDS011;39794;55.782;37.452;2024-02-28T01:17:18;9.50;;;4.30;;
53881;SDS011;39794;55.782;37.452;2024-02-28T01:19:47;9.77;;;3.50;;
53881;SDS011;39794;55.782;37.452;2024-02-28T01:22:17;7.85;;;3.42;;
53881;SDS011;39794;55.782;37.452;2024-02-28T01:24:45;8.40;;;3.90;;
53881;SDS011;39794;55.782;37.452;2024-02-28T01:27:13;9.90;;;3.92;;
53881;SDS011;39794;55.782;37.452;2024-02-28T01:29:42;7.03;;;4.32;;
53881;SDS011;39794;55.782;37.452;2024-02-28T01:32:10;10.93;;;5.35;;
53881;SDS011;39794;55.782;37.452;2024-02-28T01:34:39;8.48;;;4.47;;
53881;SDS011;39794;55.782;37.452;2024-02-28T01:37:07;8.07;;;4.10;;
53881;SDS011;39794;55.782;37.452;2024-02-28T01:39:37;8.85;;;4.50;;
53881;SDS011;39794;55.782;37.452;2024-02-28T01:42:05;12.40;;;3.70;;
53881;SDS011;39794;55.782;37.452;2024-02-28T01:44:34;10.50;;;4.95;;
53881;SDS011;39794;55.782;37.452;2024-02-28T01:49:37;10.68;;;4.53;;
53881;SDS011;39794;55.782;37.452;2024-02-28T01:52:06;7.50;;;3.65;;
53881;SDS011;39794;55.782;37.452;2024-02-28T01:54:34;6.63;;;3.67;;
53881;SDS011;39794;55.782;37.452;2024-02-28T01:57:04;10.75;;;4.75;;
53881;SDS011;39794;55.782;37.452;2024-02-28T01:59:33;8.02;;;4.07;;
53881;SDS011;39794;55.782;37.452;2024-02-28T02:02:03;7.85;;;3.78;;
53881;SDS011;39794;55.782;37.452;2024-02-28T02:04:32;7.20;;;4.20;;
53881;SDS011;39794;55.782;37.452;2024-02-28T02:07:00;9.70;;;5.00;;
53881;SDS011;39794;55.782;37.452;2024-02-28T02:09:29;8.23;;;3.92;;
53881;SDS011;39794;55.782;37.452;2024-02-28T02:11:59;9.40;;;4.40;;
53881;SDS011;39794;55.782;37.452;2024-02-28T02:14:27;15.25;;;4.47;;
53881;SDS011;39794;55.782;37.452;2024-02-28T02:16:56;8.13;;;4.28;;
53881;SDS011;39794;55.782;37.452;2024-02-28T02:19:24;16.63;;;4.47;;
53881;SDS011;39794;55.782;37.452;2024-02-28T02:21:53;8.75;;;4.43;;
53881;SDS011;39794;55.782;37.452;2024-02-28T02:24:27;8.60;;;3.72;;
53881;SDS011;39794;55.782;37.452;2024-02-28T02:26:57;7.50;;;4.13;;
53881;SDS011;39794;55.782;37.452;2024-02-28T02:29:28;9.85;;;4.70;;
53881;SDS011;39794;55.782;37.452;2024-02-28T02:31:56;13.93;;;4.78;;
53881;SDS011;39794;55.782;37.452;2024-02-28T02:34:25;12.98;;;4.78;;
53881;SDS011;39794;55.782;37.452;2024-02-28T02:36:53;8.88;;;4.35;;
53881;SDS011;39794;55.782;37.452;2024-02-28T02:39:22;11.25;;;4.95;;
53881;SDS011;39794;55.782;37.452;2024-02-28T02:41:52;10.32;;;3.95;;
53881;SDS011;39794;55.782;37.452;2024-02-28T02:44:21;11.10;;;4.32;;
53881;SDS011;39794;55.782;37.452;2024-02-28T02:46:50;9.40;;;4.60;;
53881;SDS011;39794;55.782;37.452;2024-02-28T02:49:18;8.63;;;5.15;;
53881;SDS011;39794;55.782;37.452;2024-02-28T02:51:47;11.10;;;5.05;;
53881;SDS011;39794;55.782;37.452;2024-02-28T02:54:15;10.20;;;4.82;;
53881;SDS011;39794;55.782;37.452;2024-02-28T02:56:44;10.80;;;5.10;;
53881;SDS011;39794;55.782;37.452;2024-02-28T02:59:14;11.18;;;4.50;;
53881;SDS011;39794;55.782;37.452;2024-02-28T03:01:42;10.05;;;4.68;;
53881;SDS011;39794;55.782;37.452;2024-02-28T03:04:11;11.18;;;4.85;;
53881;SDS011;39794;55.782;37.452;2024-02-28T03:06:39;9.27;;;4.68;;
53881;SDS011;39794;55.782;37.452;2024-02-28T03:09:08;11.45;;;4.82;;
53881;SDS011;39794;55.782;37.452;2024-02-28T03:11:36;11.38;;;4.80;;
53881;SDS011;39794;55.782;37.452;2024-02-28T03:14:05;9.20;;;4.18;;
53881;SDS011;39794;55.782;37.452;2024-02-28T03:16:34;11.05;;;4.78;;
53881;SDS011;39794;55.782;37.452;2024-02-28T03:19:04;9.55;;;4.47;;
53881;SDS011;39794;55.782;37.452;2024-02-28T03:21:33;12.30;;;4.80;;
53881;SDS011;39794;55.782;37.452;2024-02-28T03:24:01;13.25;;;4.60;;
53881;SDS011;39794;55.782;37.452;2024-02-28T03:26:30;7.60;;;4.65;;
53881;SDS011;39794;55.782;37.452;2024-02-28T03:28:59;11.10;;;4.60;;
53881;SDS011;39794;55.782;37.452;2024-02-28T03:31:27;13.00;;;4.43;;
53881;SDS011;39794;55.782;37.452;2024-02-28T03:33:57;13.50;;;5.40;;
53881;SDS011;39794;55.782;37.452;2024-02-28T03:36:27;10.05;;;4.22;;
53881;SDS011;39794;55.782;37.452;2024-02-28T03:38:56;9.32;;;4.85;;
53881;SDS011;39794;55.782;37.452;2024-02-28T03:41:24;10.48;;;4.28;;
53881;SDS011;39794;55.782;37.452;2024-02-28T03:43:53;9.13;;;4.90;;
53881;SDS011;39794;55.782;37.452;2024-02-28T03:46:21;12.25;;;5.22;;
53881;SDS011;39794;55.782;37.452;2024-02-28T03:48:50;12.23;;;4.68;;
53881;SDS011;39794;55.782;37.452;2024-02-28T03:51:20;11.88;;;5.05;;
53881;SDS011;39794;55.782;37.452;2024-02-28T03:53:49;10.30;;;4.78;;
53881;SDS011;39794;55.782;37.452;2024-02-28T03:56:23;11.23;;;4.07;;
53881;SDS011;39794;55.782;37.452;2024-02-28T04:01:21;7.10;;;3.75;;
53881;SDS011;39794;55.782;37.452;2024-02-28T04:03:50;8.57;;;3.88;;
53881;SDS011;39794;55.782;37.452;2024-02-28T04:06:20;11.35;;;4.88;;
53881;SDS011;39794;55.782;37.452;2024-02-28T04:08:48;11.73;;;4.50;;
53881;SDS011;39794;55.782;37.452;2024-02-28T04:11:17;12.40;;;5.13;;
53881;SDS011;39794;55.782;37.452;2024-02-28T04:13:45;14.15;;;5.22;;
53881;SDS011;39794;55.782;37.452;2024-02-28T04:16:14;11.85;;;4.95;;
53881;SDS011;39794;55.782;37.452;2024-02-28T04:18:42;11.18;;;4.82;;
53881;SDS011;39794;55.782;37.452;2024-02-28T04:21:11;11.70;;;4.70;;
53881;SDS011;39794;55.782;37.452;2024-02-28T04:23:40;10.93;;;4.30;;
53881;SDS011;39794;55.782;37.452;2024-02-28T04:26:10;7.90;;;4.40;;
53881;SDS011;39794;55.782;37.452;2024-02-28T04:28:43;10.00;;;4.18;;
53881;SDS011;39794;55.782;37.452;2024-02-28T04:31:11;12.88;;;5.75;;
53881;SDS011;39794;55.782;37.452;2024-02-28T04:33:40;9.82;;;4.40;;
53881;SDS011;39794;55.782;37.452;2024-02-28T04:36:08;9.68;;;5.18;;
53881;SDS011;39794;55.782;37.452;2024-02-28T04:38:37;13.30;;;5.10;;
53881;SDS011;39794;55.782;37.452;2024-02-28T04:41:07;9.27;;;5.10;;
53881;SDS011;39794;55.782;37.452;2024-02-28T04:43:36;9.40;;;5.03;;
53881;SDS011;39794;55.782;37.452;2024-02-28T04:46:04;9.40;;;4.97;;
53881;SDS011;39794;55.782;37.452;2024-02-28T04:48:33;10.98;;;4.28;;
53881;SDS011;39794;55.782;37.452;2024-02-28T04:51:02;10.48;;;5.20;;
53881;SDS011;39794;55.782;37.452;2024-02-28T04:53:30;12.45;;;5.38;;
53881;SDS011;39794;55.782;37.452;2024-02-28T04:55:59;9.52;;;5.07;;
53881;SDS011;39794;55.782;37.452;2024-02-28T04:58:29;12.70;;;4.88;;
53881;SDS011;39794;55.782;37.452;2024-02-28T05:00:57;11.02;;;5.05;;
53881;SDS011;39794;55.782;37.452;2024-02-28T05:03:26;12.57;;;5.10;;
53881;SDS011;39794;55.782;37.452;2024-02-28T05:05:55;10.48;;;5.38;;
53881;SDS011;39794;55.782;37.452;2024-02-28T05:08:24;15.20;;;5.50;;
53881;SDS011;39794;55.782;37.452;2024-02-28T05:10:54;10.15;;;4.90;;
53881;SDS011;39794;55.782;37.452;2024-02-28T05:13:22;13.13;;;5.30;;
53881;SDS011;39794;55.782;37.452;2024-02-28T05:15:53;11.45;;;4.60;;
53881;SDS011;39794;55.782;37.452;2024-02-28T05:18:21;12.55;;;5.53;;
53881;SDS011;39794;55.782;37.452;2024-02-28T05:20:50;12.15;;;5.10;;
53881;SDS011;39794;55.782;37.452;2024-02-28T05:23:18;13.50;;;5.07;;
53881;SDS011;39794;55.782;37.452;2024-02-28T05:25:48;11.88;;;6.22;;
53881;SDS011;39794;55.782;37.452;2024-02-28T05:28:17;9.80;;;5.00;;
53881;SDS011;39794;55.782;37.452;2024-02-28T05:30:45;16.02;;;6.13;;
53881;SDS011;39794;55.782;37.452;2024-02-28T05:33:18;11.88;;;5.32;;
53881;SDS011;39794;55.782;37.452;2024-02-28T05:35:46;10.73;;;5.20;;
53881;SDS011;39794;55.782;37.452;2024-02-28T05:38:15;13.35;;;4.90;;
53881;SDS011;39794;55.782;37.452;2024-02-28T05:40:43;11.75;;;5.47;;
53881;SDS011;39794;55.782;37.452;2024-02-28T05:43:12;11.73;;;4.85;;
53881;SDS011;39794;55.782;37.452;2024-02-28T05:45:39;13.68;;;4.78;;
53881;SDS011;39794;55.782;37.452;2024-02-28T05:48:08;9.43;;;5.22;;
53881;SDS011;39794;55.782;37.452;2024-02-28T05:50:38;11.60;;;5.18;;
53881;SDS011;39794;55.782;37.452;2024-02-28T05:53:06;11.52;;;5.13;;
53881;SDS011;39794;55.782;37.452;2024-02-28T05:55:35;7.35;;;4.22;;
53881;SDS011;39794;55.782;37.452;2024-02-28T05:58:04;13.20;;;5.32;;
53881;SDS011;39794;55.782;37.452;2024-02-28T06:00:33;11.15;;;4.97;;
53881;SDS011;39794;55.782;37.452;2024-02-28T06:03:03;13.45;;;5.07;;
53881;SDS011;39794;55.782;37.452;2024-02-28T06:05:32;8.25;;;4.63;;
53881;SDS011;39794;55.782;37.452;2024-02-28T06:08:01;9.43;;;4.80;;
53881;SDS011;39794;55.782;37.452;2024-02-28T06:10:30;11.45;;;5.25;;
53881;SDS011;39794;55.782;37.452;2024-02-28T06:12:58;13.00;;;4.97;;
53881;SDS011;39794;55.782;37.452;2024-02-28T06:15:27;9.70;;;4.90;;
53881;SDS011;39794;55.782;37.452;2024-02-28T06:17:56;9.20;;;4.55;;
53881;SDS011;39794;55.782;37.452;2024-02-28T06:20:25;12.80;;;5.32;;
53881;SDS011;39794;55.782;37.452;2024-02-28T06:22:53;8.98;;;4.90;;
53881;SDS011;39794;55.782;37.452;2024-02-28T06:25:23;10.02;;;4.65;;
53881;SDS011;39794;55.782;37.452;2024-02-28T06:27:51;10.38;;;4.90;;
53881;SDS011;39794;55.782;37.452;2024-02-28T06:30:20;9.93;;;4.45;;
53881;SDS011;39794;55.782;37.452;2024-02-28T06:32:49;10.77;;;5.53;;
53881;SDS011;39794;55.782;37.452;2024-02-28T06:35:17;10.55;;;5.43;;
53881;SDS011;39794;55.782;37.452;2024-02-28T06:37:46;10.27;;;5.10;;
53881;SDS011;39794;55.782;37.452;2024-02-28T06:40:17;10.73;;;4.28;;
53881;SDS011;39794;55.782;37.452;2024-02-28T06:42:47;12.30;;;5.50;;
53881;SDS011;39794;55.782;37.452;2024-02-28T06:45:16;8.70;;;4.70;;
53881;SDS011;39794;55.782;37.452;2024-02-28T06:47:44;12.00;;;4.65;;
53881;SDS011;39794;55.782;37.452;2024-02-28T06:50:13;10.10;;;5.35;;
53881;SDS011;39794;55.782;37.452;2024-02-28T06:52:41;12.07;;;4.68;;
53881;SDS011;39794;55.782;37.452;2024-02-28T06:55:10;12.88;;;5.22;;
53881;SDS011;39794;55.782;37.452;2024-02-28T06:57:41;13.00;;;5.90;;
53881;SDS011;39794;55.782;37.452;2024-02-28T07:00:12;12.73;;;5.07;;
53881;SDS011;39794;55.782;37.452;2024-02-28T07:02:41;9.68;;;5.00;;
53881;SDS011;39794;55.782;37.452;2024-02-28T07:05:10;13.80;;;5.95;;
53881;SDS011;39794;55.782;37.452;2024-02-28T07:07:38;11.85;;;6.07;;
53881;SDS011;39794;55.782;37.452;2024-02-28T07:10:10;15.55;;;6.43;;
53881;SDS011;39794;55.782;37.452;2024-02-28T07:12:38;9.85;;;5.72;;
53881;SDS011;39794;55.782;37.452;2024-02-28T07:15:10;12.35;;;5.45;;
53881;SDS011;39794;55.782;37.452;2024-02-28T07:17:40;13.90;;;6.25;;
53881;SDS011;39794;55.782;37.452;2024-02-28T07:20:09;13.15;;;5.80;;
53881;SDS011;39794;55.782;37.452;2024-02-28T07:22:38;10.60;;;5.55;;
53881;SDS011;39794;55.782;37.452;2024-02-28T07:25:06;11.30;;;5.88;;
53881;SDS011;39794;55.782;37.452;2024-02-28T07:27:37;12.43;;;5.53;;
53881;SDS011;39794;55.782;37.452;2024-02-28T07:30:08;13.63;;;6.03;;
53881;SDS011;39794;55.782;37.452;2024-02-28T07:32:39;14.02;;;5.45;;
53881;SDS011;39794;55.782;37.452;2024-02-28T07:35:07;11.40;;;5.80;;
53881;SDS011;39794;55.782;37.452;2024-02-28T07:37:36;10.13;;;5.20;;
53881;SDS011;39794;55.782;37.452;2024-02-28T07:40:05;15.13;;;5.38;;
53881;SDS011;39794;55.782;37.452;2024-02-28T07:42:35;12.32;;;5.25;;
53881;SDS011;39794;55.782;37.452;2024-02-28T07:45:04;13.38;;;5.55;;
53881;SDS011;39794;55.782;37.452;2024-02-28T07:47:35;14.85;;;5.65;;
53881;SDS011;39794;55.782;37.452;2024-02-28T07:50:07;9.10;;;5.03;;
53881;SDS011;39794;55.782;37.452;2024-02-28T07:52:36;10.20;;;5.38;;
53881;SDS011;39794;55.782;37.452;2024-02-28T07:55:05;12.10;;;5.28;;
53881;SDS011;39794;55.782;37.452;2024-02-28T07:57:34;11.07;;;5.07;;
53881;SDS011;39794;55.782;37.452;2024-02-28T08:00:03;14.48;;;5.68;;
53881;SDS011;39794;55.782;37.452;2024-02-28T08:02:38;11.75;;;4.45;;
53881;SDS011;39794;55.782;37.452;2024-02-28T08:05:08;11.55;;;5.32;;
53881;SDS011;39794;55.782;37.452;2024-02-28T08:07:37;7.72;;;4.90;;
53881;SDS011;39794;55.782;37.452;2024-02-28T08:10:05;10.55;;;4.75;;
53881;SDS011;39794;55.782;37.452;2024-02-28T08:12:37;10.63;;;5.15;;
53881;SDS011;39794;55.782;37.452;2024-02-28T08:15:05;11.32;;;4.78;;
53881;SDS011;39794;55.782;37.452;2024-02-28T08:17:34;8.68;;;4.38;;
53881;SDS011;39794;55.782;37.452;2024-02-28T08:20:04;11.40;;;5.40;;
53881;SDS011;39794;55.782;37.452;2024-02-28T08:22:34;9.27;;;4.30;;
53881;SDS011;39794;55.782;37.452;2024-02-28T08:25:06;9.98;;;5.00;;
53881;SDS011;39794;55.782;37.452;2024-02-28T08:27:38;14.20;;;5.38;;
53881;SDS011;39794;55.782;37.452;2024-02-28T08:30:07;11.73;;;4.63;;
53881;SDS011;39794;55.782;37.452;2024-02-28T08:32:36;7.80;;;4.80;;
53881;SDS011;39794;55.782;37.452;2024-02-28T08:35:06;12.57;;;4.95;;
53881;SDS011;39794;55.782;37.452;2024-02-28T08:37:39;11.68;;;4.80;;
53881;SDS011;39794;55.782;37.452;2024-02-28T08:40:08;8.95;;;5.68;;
53881;SDS011;39794;55.782;37.452;2024-02-28T08:42:37;8.52;;;4.47;;
53881;SDS011;39794;55.782;37.452;2024-02-28T08:45:05;14.02;;;5.72;;
53881;SDS011;39794;55.782;37.452;2024-02-28T08:47:34;10.10;;;5.32;;
53881;SDS011;39794;55.782;37.452;2024-02-28T08:50:03;10.10;;;5.30;;
53881;SDS011;39794;55.782;37.452;2024-02-28T08:52:32;10.00;;;5.10;;
53881;SDS011;39794;55.782;37.452;2024-02-28T08:55:02;16.08;;;5.70;;
53881;SDS011;39794;55.782;37.452;2024-02-28T08:57:31;12.43;;;6.45;;
53881;SDS011;39794;55.782;37.452;2024-02-28T09:00:01;15.23;;;6.07;;
53881;SDS011;39794;55.782;37.452;2024-02-28T09:02:30;13.75;;;6.55;;
53881;SDS011;39794;55.782;37.452;2024-02-28T09:04:58;10.45;;;5.47;;
53881;SDS011;39794;55.782;37.452;2024-02-28T09:07:27;16.90;;;5.85;;
53881;SDS011;39794;55.782;37.452;2024-02-28T09:09:56;15.40;;;7.50;;
53881;SDS011;39794;55.782;37.452;2024-02-28T09:12:26;18.33;;;6.65;;
53881;SDS011;39794;55.782;37.452;2024-02-28T09:14:54;15.02;;;7.80;;
53881;SDS011;39794;55.782;37.452;2024-02-28T09:17:24;12.32;;;7.30;;
53881;SDS011;39794;55.782;37.452;2024-02-28T09:19:53;16.65;;;8.05;;
53881;SDS011;39794;55.782;37.452;2024-02-28T09:22:22;16.73;;;8.18;;
53881;SDS011;39794;55.782;37.452;2024-02-28T09:24:52;14.93;;;7.65;;
53881;SDS011;39794;55.782;37.452;2024-02-28T09:27:21;12.32;;;5.90;;
53881;SDS011;39794;55.782;37.452;2024-02-28T09:29:51;10.77;;;5.05;;
53881;SDS011;39794;55.782;37.452;2024-02-28T09:32:19;10.48;;;5.38;;
53881;SDS011;39794;55.782;37.452;2024-02-28T09:34:48;11.27;;;5.05;;
53881;SDS011;39794;55.782;37.452;2024-02-28T09:37:17;9.77;;;5.25;;
53881;SDS011;39794;55.782;37.452;2024-02-28T09:39:47;11.02;;;5.35;;
53881;SDS011;39794;55.782;37.452;2024-02-28T09:42:16;10.82;;;4.70;;
53881;SDS011;39794;55.782;37.452;2024-02-28T09:44:46;8.95;;;4.90;;
53881;SDS011;39794;55.782;37.452;2024-02-28T09:47:16;12.63;;;5.38;;
53881;SDS011;39794;55.782;37.452;2024-02-28T09:49:46;9.85;;;4.80;;
53881;SDS011;39794;55.782;37.452;2024-02-28T09:52:18;14.30;;;5.90;;
53881;SDS011;39794;55.782;37.452;2024-02-28T09:54:47;13.18;;;5.68;;
53881;SDS011;39794;55.782;37.452;2024-02-28T09:57:15;10.50;;;5.70;;
53881;SDS011;39794;55.782;37.452;2024-02-28T09:59:44;12.65;;;5.43;;
53881;SDS011;39794;55.782;37.452;2024-02-28T10:02:22;13.70;;;5.40;;
53881;SDS011;39794;55.782;37.452;2024-02-28T10:04:52;8.60;;;5.05;;
53881;SDS011;39794;55.782;37.452;2024-02-28T10:07:20;8.75;;;5.15;;
53881;SDS011;39794;55.782;37.452;2024-02-28T10:09:49;11.60;;;5.93;;
53881;SDS011;39794;55.782;37.452;2024-02-28T10:12:18;9.82;;;5.35;;
53881;SDS011;39794;55.782;37.452;2024-02-28T10:14:49;10.85;;;5.35;;
53881;SDS011;39794;55.782;37.452;2024-02-28T10:17:18;10.88;;;5.22;;
53881;SDS011;39794;55.782;37.452;2024-02-28T10:19:48;11.10;;;5.35;;
53881;SDS011;39794;55.782;37.452;2024-02-28T10:22:19;11.77;;;5.47;;
53881;SDS011;39794;55.782;37.452;2024-02-28T10:24:48;12.43;;;5.30;;
53881;SDS011;39794;55.782;37.452;2024-02-28T10:27:17;12.07;;;5.63;;
53881;SDS011;39794;55.782;37.452;2024-02-28T10:29:46;16.30;;;4.70;;
53881;SDS011;39794;55.782;37.452;2024-02-28T10:32:14;11.30;;;4.72;;
53881;SDS011;39794;55.782;37.452;2024-02-28T10:34:43;13.82;;;5.60;;
53881;SDS011;39794;55.782;37.452;2024-02-28T10:37:13;10.30;;;5.20;;
53881;SDS011;39794;55.782;37.452;2024-02-28T10:39:42;13.70;;;5.05;;
53881;SDS011;39794;55.782;37.452;2024-02-28T10:42:11;8.13;;;5.47;;
53881;SDS011;39794;55.782;37.452;2024-02-28T10:44:40;9.98;;;5.30;;
53881;SDS011;39794;55.782;37.452;2024-02-28T10:47:09;11.82;;;5.90;;
53881;SDS011;39794;55.782;37.452;2024-02-28T10:49:39;10.43;;;5.18;;
53881;SDS011;39794;55.782;37.452;2024-02-28T10:52:10;12.77;;;6.25;;
53881;SDS011;39794;55.782;37.452;2024-02-28T10:54:42;12.27;;;6.43;;
53881;SDS011;39794;55.782;37.452;2024-02-28T10:57:11;12.15;;;5.93;;
53881;SDS011;39794;55.782;37.452;2024-02-28T10:59:40;13.27;;;5.28;;
53881;SDS011;39794;55.782;37.452;2024-02-28T11:02:11;10.23;;;5.10;;
53881;SDS011;39794;55.782;37.452;2024-02-28T11:04:40;9.73;;;5.13;;
53881;SDS011;39794;55.782;37.452;2024-02-28T11:07:09;12.23;;;5.43;;
53881;SDS011;39794;55.782;37.452;2024-02-28T11:09:40;12.20;;;5.95;;
53881;SDS011;39794;55.782;37.452;2024-02-28T11:12:13;8.52;;;4.78;;
53881;SDS011;39794;55.782;37.452;2024-02-28T11:14:58;13.60;;;6.00;;
53881;SDS011;39794;55.782;37.452;2024-02-28T11:17:31;12.27;;;6.05;;
53881;SDS011;39794;55.782;37.452;2024-02-28T11:20:10;13.48;;;6.45;;
53881;SDS011;39794;55.782;37.452;2024-02-28T11:22:39;9.93;;;5.90;;
53881;SDS011;39794;55.782;37.452;2024-02-28T11:25:09;10.50;;;5.88;;
53881;SDS011;39794;55.782;37.452;2024-02-28T11:27:45;14.32;;;6.22;;
53881;SDS011;39794;55.782;37.452;2024-02-28T11:30:14;18.58;;;6.45;;
53881;SDS011;39794;55.782;37.452;2024-02-28T11:32:42;15.13;;;7.63;;
53881;SDS011;39794;55.782;37.452;2024-02-28T11:35:12;14.85;;;6.47;;
53881;SDS011;39794;55.782;37.452;2024-02-28T11:37:41;12.57;;;6.63;;
53881;SDS011;39794;55.782;37.452;2024-02-28T11:40:11;13.18;;;6.38;;
53881;SDS011;39794;55.782;37.452;2024-02-28T11:42:39;11.88;;;6.38;;
53881;SDS011;39794;55.782;37.452;2024-02-28T11:45:09;11.05;;;5.18;;
53881;SDS011;39794;55.782;37.452;2024-02-28T11:47:38;13.07;;;6.60;;
53881;SDS011;39794;55.782;37.452;2024-02-28T11:50:07;12.93;;;6.15;;
53881;SDS011;39794;55.782;37.452;2024-02-28T11:52:36;14.40;;;6.63;;
53881;SDS011;39794;55.782;37.452;2024-02-28T11:55:05;12.13;;;6.03;;
53881;SDS011;39794;55.782;37.452;2024-02-28T11:57:35;11.55;;;5.57;;
53881;SDS011;39794;55.782;37.452;2024-02-28T12:00:07;14.80;;;6.35;;
53881;SDS011;39794;55.782;37.452;2024-02-28T12:02:40;11.23;;;6.50;;
53881;SDS011;39794;55.782;37.452;2024-02-28T12:05:08;8.52;;;5.75;;
53881;SDS011;39794;55.782;37.452;2024-02-28T12:07:37;15.00;;;6.50;;
53881;SDS011;39794;55.782;37.452;2024-02-28T12:10:06;16.60;;;6.15;;
53881;SDS011;39794;55.782;37.452;2024-02-28T12:12:43;14.45;;;5.57;;
53881;SDS011;39794;55.782;37.452;2024-02-28T12:15:40;16.02;;;6.60;;
53881;SDS011;39794;55.782;37.452;2024-02-28T12:18:09;14.77;;;6.05;;
53881;SDS011;39794;55.782;37.452;2024-02-28T12:20:38;15.10;;;5.53;;
53881;SDS011;39794;55.782;37.452;2024-02-28T12:23:07;9.30;;;5.90;;
53881;SDS011;39794;55.782;37.452;2024-02-28T12:25:36;15.85;;;5.95;;
53881;SDS011;39794;55.782;37.452;2024-02-28T12:28:06;11.75;;;5.05;;
53881;SDS011;39794;55.782;37.452;2024-02-28T12:30:39;10.82;;;5.93;;
53881;SDS011;39794;55.782;37.452;2024-02-28T12:33:20;12.50;;;5.50;;
53881;SDS011;39794;55.782;37.452;2024-02-28T12:35:49;17.33;;;5.60;;
53881;SDS011;39794;55.782;37.452;2024-02-28T12:38:18;16.52;;;5.45;;
53881;SDS011;39794;55.782;37.452;2024-02-28T12:40:46;11.02;;;5.15;;
53881;SDS011;39794;55.782;37.452;2024-02-28T12:43:16;20.33;;;6.68;;
53881;SDS011;39794;55.782;37.452;2024-02-28T12:45:44;13.13;;;5.85;;
53881;SDS011;39794;55.782;37.452;2024-02-28T12:48:13;12.30;;;5.20;;
53881;SDS011;39794;55.782;37.452;2024-02-28T12:50:42;14.02;;;5.93;;
53881;SDS011;39794;55.782;37.452;2024-02-28T12:53:11;14.13;;;6.28;;
53881;SDS011;39794;55.782;37.452;2024-02-28T12:55:40;15.25;;;5.93;;
53881;SDS011;39794;55.782;37.452;2024-02-28T12:58:10;15.38;;;5.78;;
53881;SDS011;39794;55.782;37.452;2024-02-28T13:00:40;14.57;;;5.82;;
53881;SDS011;39794;55.782;37.452;2024-02-28T13:03:09;22.17;;;6.85;;
53881;SDS011;39794;55.782;37.452;2024-02-28T13:05:37;15.27;;;5.55;;
53881;SDS011;39794;55.782;37.452;2024-02-28T13:08:06;12.77;;;5.57;;
53881;SDS011;39794;55.782;37.452;2024-02-28T13:10:34;14.02;;;6.50;;
53881;SDS011;39794;55.782;37.452;2024-02-28T13:13:06;14.60;;;5.63;;
53881;SDS011;39794;55.782;37.452;2024-02-28T13:15:35;10.90;;;6.28;;
53881;SDS011;39794;55.782;37.452;2024-02-28T13:18:07;15.23;;;6.20;;
53881;SDS011;39794;55.782;37.452;2024-02-28T13:20:37;10.45;;;6.22;;
53881;SDS011;39794;55.782;37.452;2024-02-28T13:23:07;12.23;;;6.20;;
53881;SDS011;39794;55.782;37.452;2024-02-28T13:25:35;13.93;;;6.18;;
53881;SDS011;39794;55.782;37.452;2024-02-28T13:28:04;12.55;;;6.38;;
53881;SDS011;39794;55.782;37.452;2024-02-28T13:30:33;9.43;;;5.75;;
53881;SDS011;39794;55.782;37.452;2024-02-28T13:33:03;15.23;;;5.97;;
53881;SDS011;39794;55.782;37.452;2024-02-28T13:35:33;12.13;;;5.95;;
53881;SDS011;39794;55.782;37.452;2024-02-28T13:38:05;17.13;;;5.88;;
53881;SDS011;39794;55.782;37.452;2024-02-28T13:40:33;11.73;;;5.80;;
53881;SDS011;39794;55.782;37.452;2024-02-28T13:43:01;15.27;;;6.10;;
53881;SDS011;39794;55.782;37.452;2024-02-28T13:45:30;12.82;;;5.60;;
53881;SDS011;39794;55.782;37.452;2024-02-28T13:47:58;13.77;;;6.00;;
53881;SDS011;39794;55.782;37.452;2024-02-28T13:50:27;12.15;;;5.60;;
53881;SDS011;39794;55.782;37.452;2024-02-28T13:53:00;10.13;;;5.57;;
53881;SDS011;39794;55.782;37.452;2024-02-28T13:55:28;13.63;;;5.72;;
53881;SDS011;39794;55.782;37.452;2024-02-28T13:57:57;12.60;;;5.68;;
53881;SDS011;39794;55.782;37.452;2024-02-28T14:00:25;15.98;;;5.93;;
53881;SDS011;39794;55.782;37.452;2024-02-28T14:02:54;15.82;;;5.38;;
53881;SDS011;39794;55.782;37.452;2024-02-28T14:05:22;10.10;;;5.43;;
53881;SDS011;39794;55.782;37.452;2024-02-28T14:07:51;12.88;;;5.85;;
53881;SDS011;39794;55.782;37.452;2024-02-28T14:10:21;11.40;;;4.90;;
53881;SDS011;39794;55.782;37.452;2024-02-28T14:12:50;11.25;;;5.28;;
53881;SDS011;39794;55.782;37.452;2024-02-28T14:15:20;10.52;;;5.53;;
53881;SDS011;39794;55.782;37.452;2024-02-28T14:17:51;13.10;;;5.07;;
53881;SDS011;39794;55.782;37.452;2024-02-28T14:20:20;13.70;;;5.60;;
53881;SDS011;39794;55.782;37.452;2024-02-28T14:22:48;14.88;;;5.35;;
53881;SDS011;39794;55.782;37.452;2024-02-28T14:25:17;14.23;;;6.15;;
53881;SDS011;39794;55.782;37.452;2024-02-28T14:27:48;13.40;;;6.28;;
53881;SDS011;39794;55.782;37.452;2024-02-28T14:30:16;13.85;;;6.22;;
53881;SDS011;39794;55.782;37.452;2024-02-28T14:32:45;13.48;;;5.97;;
53881;SDS011;39794;55.782;37.452;2024-02-28T14:35:15;16.25;;;7.75;;
53881;SDS011;39794;55.782;37.452;2024-02-28T14:37:44;16.60;;;7.05;;
53881;SDS011;39794;55.782;37.452;2024-02-28T14:40:12;13.43;;;5.63;;
53881;SDS011;39794;55.782;37.452;2024-02-28T14:42:41;9.73;;;5.18;;